< < Back
Terminal Aerodrome Forecast


Current Version              Previous Versions:   1  2  3  4  5  6  7  8  9  

Terminal Aerodrome Forecast

922
FTUS42 KMLB 232320
TAFMCO
TAF
KMCO 232320Z 2400/2424 07010KT P6SM SCT070
     FM240300 06003KT P6SM SKC
     FM241600 11007KT P6SM SCT050=

Latest METAR

776
SAUS70 KWBC 241300 RRG
MTRMCO
METAR KMCO 241253Z 10009KT 10SM FEW032 SCT250 26/19 A3008 RMK AO2 SLP185
T02610194


USA.gov is the U.S. government's official web portal to all federal, state and local government web resources and services.